sensor_id;sensor_type;location;lat;lon;timestamp;pressure;altitude;pressure_sealevel;temperature;humidity
9229;BME280;4649;42.644;23.284;2023-06-26T00:02:47;92872.53;;;20.09;100.00
9229;BME280;4649;42.644;23.284;2023-06-26T00:05:24;92834.16;;;19.79;100.00
9229;BME280;4649;42.644;23.284;2023-06-26T00:08:02;92949.63;;;20.58;100.00
9229;BME280;4649;42.644;23.284;2023-06-26T00:10:31;92943.88;;;20.31;100.00
9229;BME280;4649;42.644;23.284;2023-06-26T00:13:00;92842.59;;;19.66;100.00
9229;BME280;4649;42.644;23.284;2023-06-26T00:15:57;92753.69;;;18.93;100.00
9229;BME280;4649;42.644;23.284;2023-06-26T00:18:29;92801.41;;;19.12;100.00
9229;BME280;4649;42.644;23.284;2023-06-26T00:21:06;92949.91;;;20.30;100.00
9229;BME280;4649;42.644;23.284;2023-06-26T00:23:42;92896.03;;;19.80;100.00
9229;BME280;4649;42.644;23.284;2023-06-26T00:26:24;92824.00;;;19.50;100.00
9229;BME280;4649;42.644;23.284;2023-06-26T00:28:52;92943.56;;;20.20;100.00
9229;BME280;4649;42.644;23.284;2023-06-26T00:31:26;92871.84;;;19.86;100.00
9229;BME280;4649;42.644;23.284;2023-06-26T00:33:55;92778.19;;;19.21;100.00
9229;BME280;4649;42.644;23.284;2023-06-26T00:36:28;92959.28;;;20.27;100.00
9229;BME280;4649;42.644;23.284;2023-06-26T00:38:58;92916.00;;;19.81;100.00
9229;BME280;4649;42.644;23.284;2023-06-26T00:41:31;92825.19;;;19.25;100.00
9229;BME280;4649;42.644;23.284;2023-06-26T00:44:11;92882.13;;;19.78;100.00
9229;BME280;4649;42.644;23.284;2023-06-26T00:47:15;92917.44;;;19.89;100.00
9229;BME280;4649;42.644;23.284;2023-06-26T00:49:47;92833.22;;;19.30;100.00
9229;BME280;4649;42.644;23.284;2023-06-26T00:55:22;92938.34;;;19.92;100.00
9229;BME280;4649;42.644;23.284;2023-06-26T00:58:03;92739.47;;;18.72;100.00
9229;BME280;4649;42.644;23.284;2023-06-26T01:00:33;92778.03;;;18.96;100.00
9229;BME280;4649;42.644;23.284;2023-06-26T02:36:24;92733.66;;;18.46;100.00
9229;BME280;4649;42.644;23.284;2023-06-26T04:38:52;92721.47;;;19.55;100.00
9229;BME280;4649;42.644;23.284;2023-06-26T04:53:26;92763.69;;;20.38;99.97
9229;BME280;4649;42.644;23.284;2023-06-26T05:06:01;92918.88;;;22.84;93.93
9229;BME280;4649;42.644;23.284;2023-06-26T05:08:33;92844.84;;;22.64;92.07
9229;BME280;4649;42.644;23.284;2023-06-26T05:11:15;92934.13;;;23.47;89.91
9229;BME280;4649;42.644;23.284;2023-06-26T05:14:17;92921.06;;;23.57;86.85
9229;BME280;4649;42.644;23.284;2023-06-26T05:17:23;92761.47;;;22.29;83.69
9229;BME280;4649;42.644;23.284;2023-06-26T05:20:14;92835.94;;;22.56;89.65
9229;BME280;4649;42.644;23.284;2023-06-26T15:15:18;92887.75;;;24.87;64.60
9229;BME280;4649;42.644;23.284;2023-06-26T15:18:03;92844.19;;;24.10;68.83
9229;BME280;4649;42.644;23.284;2023-06-26T15:20:32;92726.72;;;22.98;70.43
9229;BME280;4649;42.644;23.284;2023-06-26T15:22:59;92905.72;;;23.92;74.85
9229;BME280;4649;42.644;23.284;2023-06-26T15:25:41;92747.44;;;22.80;75.70
9229;BME280;4649;42.644;23.284;2023-06-26T15:28:11;92797.66;;;23.05;76.13
9229;BME280;4649;42.644;23.284;2023-06-26T15:31:20;92842.59;;;22.79;80.76
9229;BME280;4649;42.644;23.284;2023-06-26T15:37:29;92897.09;;;22.02;97.68
9229;BME280;4649;42.644;23.284;2023-06-26T15:43:39;92905.72;;;21.47;100.00
9229;BME280;4649;42.644;23.284;2023-06-26T15:49:35;92713.09;;;20.41;100.00
9229;BME280;4649;42.644;23.284;2023-06-26T15:52:09;92836.75;;;21.38;100.00
9229;BME280;4649;42.644;23.284;2023-06-26T15:54:52;92676.44;;;20.38;100.00
9229;BME280;4649;42.644;23.284;2023-06-26T15:58:13;92724.34;;;20.93;100.00
9229;BME280;4649;42.644;23.284;2023-06-26T16:01:04;92753.03;;;21.41;100.00
9229;BME280;4649;42.644;23.284;2023-06-26T16:03:45;92892.50;;;22.47;100.00
9229;BME280;4649;42.644;23.284;2023-06-26T16:15:50;92892.25;;;22.79;100.00
9229;BME280;4649;42.644;23.284;2023-06-26T16:18:19;92839.53;;;22.49;92.98
9229;BME280;4649;42.644;23.284;2023-06-26T16:20:53;92779.25;;;21.25;100.00
9229;BME280;4649;42.644;23.284;2023-06-26T16:23:24;92696.81;;;20.35;100.00
9229;BME280;4649;42.644;23.284;2023-06-26T16:25:54;92887.03;;;20.97;100.00
9229;BME280;4649;42.644;23.284;2023-06-26T16:35:15;92856.47;;;19.83;100.00
9229;BME280;4649;42.644;23.284;2023-06-26T16:37:57;92875.34;;;20.26;100.00
9229;BME280;4649;42.644;23.284;2023-06-26T16:52:50;92797.75;;;19.17;100.00
9229;BME280;4649;42.644;23.284;2023-06-26T17:24:46;92910.59;;;20.83;100.00
9229;BME280;4649;42.644;23.284;2023-06-26T17:27:27;92819.34;;;19.75;100.00
9229;BME280;4649;42.644;23.284;2023-06-26T17:33:26;92928.00;;;20.54;100.00
9229;BME280;4649;42.644;23.284;2023-06-26T17:35:53;92779.28;;;19.72;100.00
9229;BME280;4649;42.644;23.284;2023-06-26T17:38:20;92932.69;;;20.76;100.00
9229;BME280;4649;42.644;23.284;2023-06-26T17:40:48;92922.63;;;20.64;100.00
9229;BME280;4649;42.644;23.284;2023-06-26T17:43:15;92906.28;;;20.66;100.00
9229;BME280;4649;42.644;23.284;2023-06-26T17:45:42;92929.38;;;20.78;100.00
9229;BME280;4649;42.644;23.284;2023-06-26T18:48:36;92933.56;;;21.35;96.80
9229;BME280;4649;42.644;23.284;2023-06-26T18:51:24;92879.56;;;20.90;98.94
9229;BME280;4649;42.644;23.284;2023-06-26T18:54:20;92932.84;;;21.27;100.00
9229;BME280;4649;42.644;23.284;2023-06-26T18:57:04;92966.88;;;21.46;99.65
9229;BME280;4649;42.644;23.284;2023-06-26T19:00:06;92905.69;;;20.43;100.00
9229;BME280;4649;42.644;23.284;2023-06-26T19:03:07;92915.03;;;20.47;100.00
